Time;durP1;ratioP1;P1;durP2;ratioP2;P2;SDS_P1;SDS_P2;PMS_P1;PMS_P2;Temp;Humidity;BMP_temperature;BMP_pressure;BME280_temperature;BME280_humidity;BME280_pressure;Samples;Min_cycle;Max_cycle;Signal;HPM_P1;HPM_P2
2023/06/04 00:00:42;;;;;;;;;;;;;;;;;;5013643;28;20152;-72
2023/06/04 00:03:08;;;;;;;;;;;;;;;;;;5013483;28;19913;-72
2023/06/04 00:05:34;;;;;;;;;;;;;;;;;;5011110;28;20553;-72
2023/06/04 00:08:00;;;;;;;;;;;;;;;;;;5012051;28;19955;-72
2023/06/04 00:10:26;;;;;;;;;;;;;;;;;;5007532;28;19913;-72
2023/06/04 00:12:52;;;;;;;;;;;;;;;;;;5015949;28;19921;-72
2023/06/04 00:15:18;;;;;;;;;;;;;;;;;;5007407;28;19917;-72
2023/06/04 00:17:44;;;;;;;;;;;;;;;;;;5011965;28;20648;-72
2023/06/04 00:20:10;;;;;;;;;;;;;;;;;;5010785;28;19917;-72
2023/06/04 00:22:36;;;;;;;;;;;;;;;;;;5013732;28;19939;-72
2023/06/04 00:25:03;;;;;;;;;;;;;;;;;;5012932;28;20082;-72
2023/06/04 00:27:28;;;;;;;;;;;;;;;;;;5008122;28;19920;-72
2023/06/04 00:29:54;;;;;;;;;;;;;;;;;;5015797;28;19913;-72
2023/06/04 00:32:21;;;;;;;;;;;;;;;;;;5006491;28;19917;-73
2023/06/04 00:34:47;;;;;;;;;;;;;;;;;;5014773;28;19951;-71
2023/06/04 00:37:13;;;;;;;;;;;;;;;;;;5007440;28;20350;-74
2023/06/04 00:39:38;;;;;;;;;;;;;;;;;;5012470;28;20380;-73
2023/06/04 00:42:04;;;;;;;;;;;;;;;;;;5011759;28;19917;-73
2023/06/04 00:44:30;;;;;;;;;;;;;;;;;;5010851;28;21478;-73
2023/06/04 00:46:56;;;;;;;;;;;;;;;;;;5012909;28;19996;-73
2023/06/04 00:49:22;;;;;;;;;;;;;;;;;;5012631;28;20384;-73
2023/06/04 00:51:48;;;;;;;;;;;;;;;;;;5008645;28;20721;-72
2023/06/04 00:54:15;;;;;;;;;;;;;;;;;;5008614;28;19917;-72
2023/06/04 00:56:41;;;;;;;;;;;;;;;;;;5018551;28;19967;-72
2023/06/04 00:59:08;;;;;;;;;;;;;;;;;;5015975;28;20361;-72
2023/06/04 01:01:34;;;;;;;;;;;;;;;;;;5009339;28;20399;-72
2023/06/04 01:04:00;;;;;;;;;;;;;;;;;;5012764;28;19919;-73
2023/06/04 01:06:26;;;;;;;;;;;;;;;;;;5010969;28;20383;-69
2023/06/04 01:08:55;;;;;;;;;;;;;;;;;;5011767;28;20235;-69
2023/06/04 01:11:21;;;;;;;;;;;;;;;;;;5014807;28;19913;-69
2023/06/04 01:13:47;;;;;;;;;;;;;;;;;;5011821;28;20334;-70
2023/06/04 01:16:13;;;;;;;;;;;;;;;;;;5011267;28;20432;-69
2023/06/04 01:18:39;;;;;;;;;;;;;;;;;;5013236;28;19920;-69
2023/06/04 01:21:07;;;;;;;;;;;;;;;;;;5012425;28;20327;-70
2023/06/04 01:23:36;;;;;;;;;;;;;;;;;;5007849;28;19975;-70
2023/06/04 01:26:04;;;;;;;;;;;;;;;;;;5009521;28;19920;-69
2023/06/04 01:28:30;;;;;;;;;;;;;;;;;;5015106;28;20781;-69
2023/06/04 01:30:56;;;;;;;;;;;;;;;;;;5015004;28;19916;-70
2023/06/04 01:33:22;;;;;;;;;;;;;;;;;;5013434;28;20282;-71
2023/06/04 01:35:48;;;;;;;;;;;;;;;;;;5013383;28;20281;-70
2023/06/04 01:38:14;;;;;;;;;;;;;;;;;;5008858;28;20501;-71
2023/06/04 01:40:40;;;;;;;;;;;;;;;;;;5013691;28;19913;-69
2023/06/04 01:43:06;;;;;;;;;;;;;;;;;;5014807;28;19912;-69
2023/06/04 01:45:33;;;;;;;;;;;;;;;;;;5007801;28;20226;-69
2023/06/04 01:47:59;;;;;;;;;;;;;;;;;;5011524;28;19967;-69
2023/06/04 01:50:25;;;;;;;;;;;;;;;;;;5007696;28;19947;-69
2023/06/04 01:52:51;;;;;;;;;;;;;;;;;;5013340;28;19987;-69
2023/06/04 01:55:18;;;;;;;;;;;;;;;;;;5007289;28;20328;-69
2023/06/04 01:57:44;;;;;;;;;;;;;;;;;;5015350;28;20470;-69
2023/06/04 02:00:11;;;;;;;;;;;;;;;;;;5012457;28;20369;-71
2023/06/04 02:02:37;;;;;;;;;;;;;;;;;;5014236;28;20016;-70
2023/06/04 02:05:03;;;;;;;;;;;;;;;;;;5012277;28;20343;-70
2023/06/04 02:07:31;;;;;;;;;;;;;;;;;;5013076;28;19912;-69
2023/06/04 02:09:57;;;;;;;;;;;;;;;;;;5015699;28;20721;-69
2023/06/04 02:12:23;;;;;;;;;;;;;;;;;;5012709;28;19927;-69
2023/06/04 02:14:49;;;;;;;;;;;;;;;;;;5017453;28;19920;-70
2023/06/04 02:17:16;;;;;;;;;;;;;;;;;;5015447;28;20334;-70
2023/06/04 02:19:49;;;;;;;;;;;;;;;;;;5017030;28;19943;-70
2023/06/04 02:22:15;;;;;;;;;;;;;;;;;;5012056;28;19909;-70
2023/06/04 02:24:42;;;;;;;;;;;;;;;;;;5018698;28;19913;-70
2023/06/04 02:27:08;;;;;;;;;;;;;;;;;;5015307;28;19920;-70
2023/06/04 02:29:34;;;;;;;;;;;;;;;;;;5014585;28;20254;-70
2023/06/04 02:32:00;;;;;;;;;;;;;;;;;;5015273;28;19909;-70
2023/06/04 02:34:26;;;;;;;;;;;;;;;;;;5014553;28;20379;-70
2023/06/04 02:36:52;;;;;;;;;;;;;;;;;;5020559;28;20359;-70
2023/06/04 02:39:18;;;;;;;;;;;;;;;;;;5011669;28;20100;-70
2023/06/04 02:41:44;;;;;;;;;;;;;;;;;;5018121;28;19912;-70
2023/06/04 02:44:10;;;;;;;;;;;;;;;;;;5014084;28;20379;-70
2023/06/04 02:46:36;;;;;;;;;;;;;;;;;;5017674;28;19936;-70
2023/06/04 02:49:02;;;;;;;;;;;;;;;;;;5014816;28;20051;-70
2023/06/04 02:51:28;;;;;;;;;;;;;;;;;;5012911;28;19913;-70
2023/06/04 02:53:54;;;;;;;;;;;;;;;;;;5015080;28;19913;-70
2023/06/04 02:56:20;;;;;;;;;;;;;;;;;;5015980;28;19917;-70
2023/06/04 02:58:46;;;;;;;;;;;;;;;;;;5014789;28;19920;-70
2023/06/04 03:01:12;;;;;;;;;;;;;;;;;;5010003;28;19991;-70
2023/06/04 03:03:38;;;;;;;;;;;;;;;;;;5014591;28;19996;-69
2023/06/04 03:06:04;;;;;;;;;;;;;;;;;;5012120;28;19966;-69
2023/06/04 03:08:30;;;;;;;;;;;;;;;;;;5011159;28;23908;-69
2023/06/04 03:10:56;;;;;;;;;;;;;;;;;;5013322;28;19920;-69
2023/06/04 03:13:22;;;;;;;;;;;;;;;;;;5008397;28;19968;-70
2023/06/04 03:15:49;;;;;;;;;;;;;;;;;;5015170;28;20327;-69
2023/06/04 03:18:14;;;;;;;;;;;;;;;;;;5013361;28;20015;-70
2023/06/04 03:20:41;;;;;;;;;;;;;;;;;;5012881;28;19919;-70
2023/06/04 03:23:07;;;;;;;;;;;;;;;;;;5012341;28;19924;-71
2023/06/04 03:25:33;;;;;;;;;;;;;;;;;;5012404;28;20465;-71
2023/06/04 03:27:59;;;;;;;;;;;;;;;;;;5016442;28;19942;-70
2023/06/04 03:30:25;;;;;;;;;;;;;;;;;;5009563;28;20435;-69
2023/06/04 03:32:51;;;;;;;;;;;;;;;;;;5013812;28;19913;-69
2023/06/04 03:35:17;;;;;;;;;;;;;;;;;;5012342;28;19917;-69
2023/06/04 03:37:43;;;;;;;;;;;;;;;;;;5013757;28;19913;-69
2023/06/04 03:40:09;;;;;;;;;;;;;;;;;;5014102;28;20008;-69
2023/06/04 03:42:35;;;;;;;;;;;;;;;;;;5013541;28;19916;-70
2023/06/04 03:45:01;;;;;;;;;;;;;;;;;;5014709;28;20581;-69
2023/06/04 03:47:27;;;;;;;;;;;;;;;;;;5012100;28;19935;-69
2023/06/04 03:49:53;;;;;;;;;;;;;;;;;;5012994;28;20019;-68
2023/06/04 03:52:19;;;;;;;;;;;;;;;;;;5011877;28;19978;-70
2023/06/04 03:54:45;;;;;;;;;;;;;;;;;;5012658;28;19924;-69
2023/06/04 03:57:11;;;;;;;;;;;;;;;;;;5010551;28;19917;-70
2023/06/04 03:59:36;;;;;;;;;;;;;;;;;;5015932;28;20479;-68
2023/06/04 04:02:02;;;;;;;;;;;;;;;;;;5014244;28;19912;-69
2023/06/04 04:04:28;;;;;;;;;;;;;;;;;;5011788;28;20418;-69
2023/06/04 04:06:54;;;;;;;;;;;;;;;;;;5013163;28;20361;-70
2023/06/04 04:09:20;;;;;;;;;;;;;;;;;;5009195;28;20008;-70
2023/06/04 04:11:46;;;;;;;;;;;;;;;;;;5013124;28;19913;-70
2023/06/04 04:14:12;;;;;;;;;;;;;;;;;;5010919;28;20395;-70
2023/06/04 04:16:38;;;;;;;;;;;;;;;;;;5011358;28;19998;-70
2023/06/04 04:19:07;;;;;;;;;;;;;;;;;;5012456;28;19921;-70
2023/06/04 04:21:33;;;;;;;;;;;;;;;;;;5013771;28;19959;-68
2023/06/04 04:23:59;;;;;;;;;;;;;;;;;;5015800;28;20685;-70
2023/06/04 04:26:27;;;;;;;;;;;;;;;;;;5013234;28;19962;-70
2023/06/04 04:28:59;;;;;;;;;;;;;;;;;;5012133;28;19909;-71
2023/06/04 04:31:25;;;;;;;;;;;;;;;;;;5012931;28;19920;-69
2023/06/04 04:33:52;;;;;;;;;;;;;;;;;;5009674;28;19964;-68
2023/06/04 04:36:18;;;;;;;;;;;;;;;;;;5010723;28;20495;-70
2023/06/04 04:38:44;;;;;;;;;;;;;;;;;;5014906;28;19917;-69
2023/06/04 04:41:11;;;;;;;;;;;;;;;;;;5012489;28;19913;-68
2023/06/04 04:43:39;;;;;;;;;;;;;;;;;;5009771;28;20017;-68
2023/06/04 04:46:04;;;;;;;;;;;;;;;;;;5014721;28;19917;-70
2023/06/04 04:48:30;;;;;;;;;;;;;;;;;;5011216;28;20568;-69
2023/06/04 04:50:56;;;;;;;;;;;;;;;;;;5014294;28;19956;-70
2023/06/04 04:53:22;;;;;;;;;;;;;;;;;;5009311;28;20030;-69
2023/06/04 04:55:48;;;;;;;;;;;;;;;;;;5014595;28;20467;-70
2023/06/04 04:58:14;;;;;;;;;;;;;;;;;;5007522;28;20020;-69
2023/06/04 05:00:40;;;;;;;;;;;;;;;;;;5012136;28;19913;-70
2023/06/04 05:03:06;;;;;;;;;;;;;;;;;;5009979;28;19924;-70
2023/06/04 05:05:32;;;;;;;;;;;;;;;;;;5010876;28;19913;-69
2023/06/04 05:07:58;;;;;;;;;;;;;;;;;;5012606;28;19920;-70
2023/06/04 05:10:24;;;;;;;;;;;;;;;;;;5013056;28;20716;-69
2023/06/04 05:12:50;;;;;;;;;;;;;;;;;;5012839;28;19909;-70
2023/06/04 05:15:18;;;;;;;;;;;;;;;;;;5009765;28;20479;-69
2023/06/04 05:17:44;;;;;;;;;;;;;;;;;;5011351;28;19951;-69
2023/06/04 05:20:11;;;;;;;;;;;;;;;;;;5013639;28;19930;-69
2023/06/04 05:22:37;;;;;;;;;;;;;;;;;;5011915;28;19938;-70
2023/06/04 05:25:03;;;;;;;;;;;;;;;;;;5012110;28;20439;-69
2023/06/04 05:27:31;;;;;;;;;;;;;;;;;;5009152;28;19970;-69
2023/06/04 05:29:57;;;;;;;;;;;;;;;;;;5013920;28;19921;-69
2023/06/04 05:32:23;;;;;;;;;;;;;;;;;;5009947;28;19920;-69
2023/06/04 05:34:49;;;;;;;;;;;;;;;;;;5017062;28;19917;-69
2023/06/04 05:37:18;;;;;;;;;;;;;;;;;;5012156;28;19924;-69
2023/06/04 05:39:44;;;;;;;;;;;;;;;;;;5007917;28;19912;-69
2023/06/04 05:42:10;;;;;;;;;;;;;;;;;;5013641;28;20541;-70
2023/06/04 05:44:36;;;;;;;;;;;;;;;;;;5009069;28;20185;-70
2023/06/04 05:47:02;;;;;;;;;;;;;;;;;;5011904;28;20169;-70
2023/06/04 05:49:28;;;;;;;;;;;;;;;;;;5008049;28;19974;-70
2023/06/04 05:51:54;;;;;;;;;;;;;;;;;;5010632;28;19938;-70
2023/06/04 05:54:20;;;;;;;;;;;;;;;;;;5009822;28;19917;-70
2023/06/04 05:56:46;;;;;;;;;;;;;;;;;;5013491;28;20276;-70
2023/06/04 05:59:12;;;;;;;;;;;;;;;;;;5011413;28;19919;-70
2023/06/04 06:01:38;;;;;;;;;;;;;;;;;;5013851;28;19920;-70
2023/06/04 06:04:05;;;;;;;;;;;;;;;;;;5016884;28;19913;-70
2023/06/04 06:06:31;;;;;;;;;;;;;;;;;;5009063;28;19917;-70
2023/06/04 06:08:58;;;;;;;;;;;;;;;;;;5009683;28;19943;-69
2023/06/04 06:11:26;;;;;;;;;;;;;;;;;;5009622;28;20179;-69
2023/06/04 06:13:52;;;;;;;;;;;;;;;;;;5010971;28;19921;-70
2023/06/04 06:16:18;;;;;;;;;;;;;;;;;;5006884;28;19917;-70
2023/06/04 06:18:44;;;;;;;;;;;;;;;;;;5010666;28;20344;-69
2023/06/04 06:21:10;;;;;;;;;;;;;;;;;;5015127;28;20410;-69
2023/06/04 06:23:36;;;;;;;;;;;;;;;;;;5014071;28;20276;-70
2023/06/04 06:26:03;;;;;;;;;;;;;;;;;;5011584;28;19913;-70
2023/06/04 06:28:29;;;;;;;;;;;;;;;;;;5008609;28;19928;-69
2023/06/04 06:30:55;;;;;;;;;;;;;;;;;;5011682;28;19920;-69
2023/06/04 06:33:23;;;;;;;;;;;;;;;;;;5008481;28;19913;-70
2023/06/04 06:35:49;;;;;;;;;;;;;;;;;;5012409;28;19923;-69
2023/06/04 06:38:15;;;;;;;;;;;;;;;;;;5008227;28;19956;-70
2023/06/04 06:40:41;;;;;;;;;;;;;;;;;;5013955;28;19959;-71
2023/06/04 06:43:07;;;;;;;;;;;;;;;;;;5011015;28;20479;-71
2023/06/04 06:45:33;;;;;;;;;;;;;;;;;;5009487;28;19913;-70
2023/06/04 06:47:59;;;;;;;;;;;;;;;;;;5011829;28;19940;-70
2023/06/04 06:50:25;;;;;;;;;;;;;;;;;;5006330;28;20070;-70
2023/06/04 06:52:51;;;;;;;;;;;;;;;;;;5012724;28;19986;-70
2023/06/04 06:55:17;;;;;;;;;;;;;;;;;;5012734;28;19988;-70
2023/06/04 06:57:43;;;;;;;;;;;;;;;;;;5009926;28;20442;-70
2023/06/04 07:00:09;;;;;;;;;;;;;;;;;;5013387;28;20333;-70
2023/06/04 07:02:35;;;;;;;;;;;;;;;;;;5004431;28;20001;-70
2023/06/04 07:05:01;;;;;;;;;;;;;;;;;;5009148;28;20702;-69
2023/06/04 07:07:27;;;;;;;;;;;;;;;;;;5012049;28;19912;-69
2023/06/04 07:09:53;;;;;;;;;;;;;;;;;;5012774;28;19928;-69
2023/06/04 07:12:19;;;;;;;;;;;;;;;;;;5010445;28;19917;-69
2023/06/04 07:14:45;;;;;;;;;;;;;;;;;;5013342;28;19913;-68
2023/06/04 07:17:11;;;;;;;;;;;;;;;;;;5007537;28;21049;-70
2023/06/04 07:19:37;;;;;;;;;;;;;;;;;;5012940;28;20026;-69
2023/06/04 07:22:03;;;;;;;;;;;;;;;;;;5014047;28;20368;-69
2023/06/04 07:24:29;;;;;;;;;;;;;;;;;;5010623;28;19926;-69
2023/06/04 07:26:55;;;;;;;;;;;;;;;;;;5013602;28;19917;-70
2023/06/04 07:29:21;;;;;;;;;;;;;;;;;;5008523;28;19971;-69
2023/06/04 07:31:47;;;;;;;;;;;;;;;;;;5016372;28;19913;-69
2023/06/04 07:34:13;;;;;;;;;;;;;;;;;;5009607;28;19919;-69
2023/06/04 07:36:39;;;;;;;;;;;;;;;;;;5016476;28;19916;-69
2023/06/04 07:39:05;;;;;;;;;;;;;;;;;;5015896;28;20003;-70
2023/06/04 07:41:31;;;;;;;;;;;;;;;;;;5012311;28;20051;-69
2023/06/04 07:43:57;;;;;;;;;;;;;;;;;;5011893;28;19927;-70
2023/06/04 07:46:23;;;;;;;;;;;;;;;;;;5008714;28;21306;-70
2023/06/04 07:48:49;;;;;;;;;;;;;;;;;;5013166;28;20281;-69
2023/06/04 07:51:15;;;;;;;;;;;;;;;;;;5007340;28;20005;-70
2023/06/04 07:53:42;;;;;;;;;;;;;;;;;;5010546;28;19919;-70
2023/06/04 07:56:08;;;;;;;;;;;;;;;;;;5009985;28;20360;-69
2023/06/04 07:58:34;;;;;;;;;;;;;;;;;;5003836;28;20370;-69
2023/06/04 08:01:00;;;;;;;;;;;;;;;;;;5011351;28;19913;-70
2023/06/04 08:03:26;;;;;;;;;;;;;;;;;;5004741;28;19913;-70
2023/06/04 08:05:52;;;;;;;;;;;;;;;;;;5011523;28;19917;-70
2023/06/04 08:08:18;;;;;;;;;;;;;;;;;;5005099;28;19917;-70
2023/06/04 08:10:44;;;;;;;;;;;;;;;;;;5011143;28;20292;-70
2023/06/04 08:13:10;;;;;;;;;;;;;;;;;;5012713;28;20379;-69
2023/06/04 08:15:36;;;;;;;;;;;;;;;;;;5008117;28;19923;-70
2023/06/04 08:18:02;;;;;;;;;;;;;;;;;;5009255;28;19921;-70
2023/06/04 08:20:28;;;;;;;;;;;;;;;;;;5005820;28;19920;-71
2023/06/04 08:22:54;;;;;;;;;;;;;;;;;;5008557;28;20420;-70
2023/06/04 08:25:20;;;;;;;;;;;;;;;;;;5006751;28;19924;-69
2023/06/04 08:27:46;;;;;;;;;;;;;;;;;;5009849;28;19932;-72
2023/06/04 08:30:12;;;;;;;;;;;;;;;;;;5006373;28;20177;-70
2023/06/04 08:32:40;;;;;;;;;;;;;;;;;;5011270;28;20385;-70
2023/06/04 08:35:06;;;;;;;;;;;;;;;;;;5011061;28;20011;-70
2023/06/04 08:37:31;;;;;;;;;;;;;;;;;;5008151;28;20444;-70
2023/06/04 08:39:57;;;;;;;;;;;;;;;;;;5008454;28;20071;-70
2023/06/04 08:42:23;;;;;;;;;;;;;;;;;;5007452;28;19938;-70
2023/06/04 08:44:50;;;;;;;;;;;;;;;;;;5009359;28;19912;-70
2023/06/04 08:47:16;;;;;;;;;;;;;;;;;;5006743;28;19913;-71
2023/06/04 08:49:42;;;;;;;;;;;;;;;;;;5012409;28;19939;-70
2023/06/04 08:52:08;;;;;;;;;;;;;;;;;;5013272;28;19913;-71
2023/06/04 08:54:34;;;;;;;;;;;;;;;;;;5007160;28;19923;-71
2023/06/04 08:57:00;;;;;;;;;;;;;;;;;;5010426;28;19972;-71
2023/06/04 08:59:26;;;;;;;;;;;;;;;;;;5005739;28;20260;-71
2023/06/04 09:01:52;;;;;;;;;;;;;;;;;;5006616;28;20490;-71
2023/06/04 09:04:18;;;;;;;;;;;;;;;;;;5009346;28;19959;-72
2023/06/04 09:06:44;;;;;;;;;;;;;;;;;;5011418;28;19916;-70
2023/06/04 09:09:12;;;;;;;;;;;;;;;;;;5007343;28;19913;-71
2023/06/04 09:11:38;;;;;;;;;;;;;;;;;;5009837;28;19932;-72
2023/06/04 09:14:03;;;;;;;;;;;;;;;;;;5008540;28;20574;-70
2023/06/04 09:16:36;;;;;;;;;;;;;;;;;;5005729;28;20066;-70
2023/06/04 09:19:02;;;;;;;;;;;;;;;;;;5014021;28;19927;-70
2023/06/04 09:21:28;;;;;;;;;;;;;;;;;;5007755;28;19967;-72
2023/06/04 09:23:54;;;;;;;;;;;;;;;;;;5010537;28;20670;-70
2023/06/04 09:26:21;;;;;;;;;;;;;;;;;;5008101;28;20262;-75
2023/06/04 09:28:47;;;;;;;;;;;;;;;;;;5007259;28;19942;-73
2023/06/04 09:31:13;;;;;;;;;;;;;;;;;;5004679;28;20308;-73
2023/06/04 09:33:39;;;;;;;;;;;;;;;;;;5009604;28;20461;-72
2023/06/04 09:36:05;;;;;;;;;;;;;;;;;;5009152;28;19921;-72
2023/06/04 09:38:31;;;;;;;;;;;;;;;;;;5009710;28;21481;-72
2023/06/04 09:40:57;;;;;;;;;;;;;;;;;;5009296;28;20444;-72
2023/06/04 09:43:23;;;;;;;;;;;;;;;;;;5006725;28;19921;-71
2023/06/04 09:45:49;;;;;;;;;;;;;;;;;;5015284;28;20312;-71
2023/06/04 09:48:15;;;;;;;;;;;;;;;;;;5009778;28;19932;-68
2023/06/04 09:50:45;;;;;;;;;;;;;;;;;;5010574;28;19919;-71
2023/06/04 09:53:11;;;;;;;;;;;;;;;;;;5009283;28;19915;-71
2023/06/04 09:55:37;;;;;;;;;;;;;;;;;;5007308;28;19917;-71
2023/06/04 09:58:02;;;;;;;;;;;;;;;;;;5010179;28;19963;-71
2023/06/04 10:00:28;;;;;;;;;;;;;;;;;;5008872;28;20454;-71
2023/06/04 10:02:54;;;;;;;;;;;;;;;;;;5012534;28;20354;-71
2023/06/04 10:05:21;;;;;;;;;;;;;;;;;;5006622;28;19924;-71
2023/06/04 10:07:47;;;;;;;;;;;;;;;;;;5010766;28;19909;-72
2023/06/04 10:10:13;;;;;;;;;;;;;;;;;;5007856;28;19913;-72
2023/06/04 10:12:39;;;;;;;;;;;;;;;;;;5010564;28;20243;-72
2023/06/04 10:15:05;;;;;;;;;;;;;;;;;;5009062;28;20100;-71
2023/06/04 10:17:31;;;;;;;;;;;;;;;;;;5008074;28;20643;-70
2023/06/04 10:19:57;;;;;;;;;;;;;;;;;;5011768;28;20396;-70
2023/06/04 10:22:23;;;;;;;;;;;;;;;;;;5008497;28;20810;-69
2023/06/04 10:24:49;;;;;;;;;;;;;;;;;;5011434;28;20374;-72
2023/06/04 10:27:15;;;;;;;;;;;;;;;;;;5014313;28;20247;-71
2023/06/04 10:29:41;;;;;;;;;;;;;;;;;;5009587;28;19913;-71
2023/06/04 10:32:07;;;;;;;;;;;;;;;;;;5011291;28;20421;-71
2023/06/04 10:34:33;;;;;;;;;;;;;;;;;;5011390;28;19913;-71
2023/06/04 10:36:59;;;;;;;;;;;;;;;;;;5006983;28;21433;-69
2023/06/04 10:39:25;;;;;;;;;;;;;;;;;;5009844;28;19913;-69
2023/06/04 10:41:51;;;;;;;;;;;;;;;;;;5012851;28;19908;-69
2023/06/04 10:44:17;;;;;;;;;;;;;;;;;;5017388;28;19923;-70
2023/06/04 10:46:43;;;;;;;;;;;;;;;;;;5013768;28;19979;-69
2023/06/04 10:49:10;;;;;;;;;;;;;;;;;;5014799;28;20549;-68
2023/06/04 10:51:37;;;;;;;;;;;;;;;;;;5012705;28;19913;-70
2023/06/04 10:54:03;;;;;;;;;;;;;;;;;;5013157;28;19916;-68
2023/06/04 10:56:29;;;;;;;;;;;;;;;;;;5014244;28;19916;-68
2023/06/04 10:58:55;;;;;;;;;;;;;;;;;;5014162;28;19954;-71
2023/06/04 11:01:21;;;;;;;;;;;;;;;;;;5014160;28;20043;-70
2023/06/04 11:03:47;;;;;;;;;;;;;;;;;;5014729;28;20277;-70
2023/06/04 11:06:13;;;;;;;;;;;;;;;;;;5010859;28;19924;-71
2023/06/04 11:08:40;;;;;;;;;;;;;;;;;;5014749;28;19920;-70
2023/06/04 11:11:06;;;;;;;;;;;;;;;;;;5015324;28;19921;-71
2023/06/04 11:13:32;;;;;;;;;;;;;;;;;;5009901;28;20573;-71
2023/06/04 11:15:58;;;;;;;;;;;;;;;;;;5012842;28;19916;-70
2023/06/04 11:18:24;;;;;;;;;;;;;;;;;;5009928;28;19928;-71
2023/06/04 11:20:52;;;;;;;;;;;;;;;;;;5013428;28;19913;-69
2023/06/04 11:23:18;;;;;;;;;;;;;;;;;;5008972;28;20310;-69
2023/06/04 11:25:44;;;;;;;;;;;;;;;;;;5011778;28;20031;-70
2023/06/04 11:28:10;;;;;;;;;;;;;;;;;;5014719;28;20392;-69
2023/06/04 11:30:36;;;;;;;;;;;;;;;;;;5011074;28;19912;-70
2023/06/04 11:33:02;;;;;;;;;;;;;;;;;;5013254;28;21348;-69
2023/06/04 11:35:28;;;;;;;;;;;;;;;;;;5014191;28;19952;-69
2023/06/04 11:37:54;;;;;;;;;;;;;;;;;;5012596;28;20036;-70
2023/06/04 11:40:20;;;;;;;;;;;;;;;;;;5010489;28;19913;-69
2023/06/04 11:42:46;;;;;;;;;;;;;;;;;;5014447;28;19920;-70
2023/06/04 11:45:12;;;;;;;;;;;;;;;;;;5008948;28;19912;-69
2023/06/04 11:47:38;;;;;;;;;;;;;;;;;;5013821;28;20284;-69
2023/06/04 11:50:04;;;;;;;;;;;;;;;;;;5013709;28;19917;-70
2023/06/04 11:52:30;;;;;;;;;;;;;;;;;;5010550;28;20007;-69
2023/06/04 11:54:56;;;;;;;;;;;;;;;;;;5016539;28;20230;-69
2023/06/04 11:57:22;;;;;;;;;;;;;;;;;;5011135;28;19956;-69
2023/06/04 11:59:48;;;;;;;;;;;;;;;;;;5011524;28;20572;-70
2023/06/04 12:02:14;;;;;;;;;;;;;;;;;;5011391;28;19917;-70
2023/06/04 12:04:40;;;;;;;;;;;;;;;;;;5013454;28;20544;-69
2023/06/04 12:07:08;;;;;;;;;;;;;;;;;;5011362;28;19917;-70
2023/06/04 12:09:35;;;;;;;;;;;;;;;;;;5011756;28;19913;-71
2023/06/04 12:12:01;;;;;;;;;;;;;;;;;;5016823;28;20425;-72
2023/06/04 12:14:27;;;;;;;;;;;;;;;;;;5009260;28;20019;-71
2023/06/04 12:16:53;;;;;;;;;;;;;;;;;;5011897;28;20380;-70
2023/06/04 12:19:19;;;;;;;;;;;;;;;;;;5008671;28;20302;-70
2023/06/04 12:21:45;;;;;;;;;;;;;;;;;;5009949;28;20176;-70
2023/06/04 12:24:11;;;;;;;;;;;;;;;;;;5016802;28;20110;-70
2023/06/04 12:26:37;;;;;;;;;;;;;;;;;;5013748;28;20570;-70
2023/06/04 12:29:04;;;;;;;;;;;;;;;;;;5011467;28;19920;-70
2023/06/04 12:31:32;;;;;;;;;;;;;;;;;;5010971;28;19917;-71
2023/06/04 12:33:58;;;;;;;;;;;;;;;;;;5009696;28;20184;-71
2023/06/04 12:36:23;;;;;;;;;;;;;;;;;;5011651;28;20183;-69
2023/06/04 12:38:49;;;;;;;;;;;;;;;;;;5012529;28;19954;-70
2023/06/04 12:41:15;;;;;;;;;;;;;;;;;;5005145;28;19913;-70
2023/06/04 12:43:41;;;;;;;;;;;;;;;;;;5009577;28;19970;-69
2023/06/04 12:46:07;;;;;;;;;;;;;;;;;;5014470;28;19913;-70
2023/06/04 12:48:33;;;;;;;;;;;;;;;;;;5007849;28;19924;-70
2023/06/04 12:51:00;;;;;;;;;;;;;;;;;;5011619;28;19935;-70
2023/06/04 12:53:26;;;;;;;;;;;;;;;;;;5008545;28;19956;-69
2023/06/04 12:55:52;;;;;;;;;;;;;;;;;;5009940;28;20444;-69
2023/06/04 12:58:18;;;;;;;;;;;;;;;;;;5008651;28;19943;-70
2023/06/04 13:00:44;;;;;;;;;;;;;;;;;;5011189;28;20765;-69
2023/06/04 13:03:09;;;;;;;;;;;;;;;;;;5011297;28;19916;-70
2023/06/04 13:05:35;;;;;;;;;;;;;;;;;;5011767;28;19920;-70
2023/06/04 13:08:01;;;;;;;;;;;;;;;;;;5012348;28;19991;-70
2023/06/04 13:10:28;;;;;;;;;;;;;;;;;;5004390;28;20216;-70
2023/06/04 13:12:54;;;;;;;;;;;;;;;;;;5010313;28;20092;-70
2023/06/04 13:15:20;;;;;;;;;;;;;;;;;;5009066;28;20663;-70
2023/06/04 13:17:46;;;;;;;;;;;;;;;;;;5011869;28;19974;-70
2023/06/04 13:20:12;;;;;;;;;;;;;;;;;;5006861;28;19917;-70
2023/06/04 13:22:38;;;;;;;;;;;;;;;;;;5009255;28;19912;-70
2023/06/04 13:25:04;;;;;;;;;;;;;;;;;;5011057;28;19913;-70
2023/06/04 13:27:30;;;;;;;;;;;;;;;;;;5008668;28;19909;-70
2023/06/04 13:29:56;;;;;;;;;;;;;;;;;;5009347;28;19974;-68
2023/06/04 13:32:22;;;;;;;;;;;;;;;;;;5009918;28;19913;-69
2023/06/04 13:34:48;;;;;;;;;;;;;;;;;;5012082;28;19913;-70
2023/06/04 13:37:14;;;;;;;;;;;;;;;;;;5008126;28;19960;-69
2023/06/04 13:39:40;;;;;;;;;;;;;;;;;;5011819;28;20411;-70
2023/06/04 13:42:06;;;;;;;;;;;;;;;;;;5011264;28;19913;-70
2023/06/04 13:44:32;;;;;;;;;;;;;;;;;;5009185;28;19987;-70
2023/06/04 13:46:58;;;;;;;;;;;;;;;;;;5009893;28;19971;-70
2023/06/04 13:49:24;;;;;;;;;;;;;;;;;;5012271;28;19955;-69
2023/06/04 13:51:50;;;;;;;;;;;;;;;;;;5008392;28;20015;-69
2023/06/04 13:54:16;;;;;;;;;;;;;;;;;;5012778;28;20379;-69
2023/06/04 13:56:42;;;;;;;;;;;;;;;;;;5012217;28;20196;-70
2023/06/04 13:59:08;;;;;;;;;;;;;;;;;;5013741;28;20506;-70
2023/06/04 14:01:34;;;;;;;;;;;;;;;;;;5006363;28;20314;-70
2023/06/04 14:04:01;;;;;;;;;;;;;;;;;;5011723;28;19917;-70
2023/06/04 14:06:27;;;;;;;;;;;;;;;;;;5008298;28;20564;-71
2023/06/04 14:08:53;;;;;;;;;;;;;;;;;;5008354;28;20353;-71
2023/06/04 14:11:19;;;;;;;;;;;;;;;;;;5007658;28;19924;-70
2023/06/04 14:13:45;;;;;;;;;;;;;;;;;;5013592;28;19913;-70
2023/06/04 14:16:11;;;;;;;;;;;;;;;;;;5015822;28;20278;-70
2023/06/04 14:18:37;;;;;;;;;;;;;;;;;;5015704;28;19929;-70
2023/06/04 14:21:03;;;;;;;;;;;;;;;;;;5018760;28;20113;-70
2023/06/04 14:23:29;;;;;;;;;;;;;;;;;;5009098;28;19913;-70
2023/06/04 14:25:55;;;;;;;;;;;;;;;;;;5015391;28;19928;-70
2023/06/04 14:28:21;;;;;;;;;;;;;;;;;;5015025;28;19920;-69
2023/06/04 14:30:47;;;;;;;;;;;;;;;;;;5015494;28;20058;-69
2023/06/04 14:33:13;;;;;;;;;;;;;;;;;;5010243;28;19912;-70
2023/06/04 14:35:46;;;;;;;;;;;;;;;;;;5016339;28;19912;-70
2023/06/04 14:38:15;;;;;;;;;;;;;;;;;;5017273;28;20124;-70
2023/06/04 14:40:47;;;;;;;;;;;;;;;;;;5022292;28;20432;-68
2023/06/04 14:43:13;;;;;;;;;;;;;;;;;;5020555;28;20430;-67
2023/06/04 14:45:40;;;;;;;;;;;;;;;;;;5024508;28;20338;-68
2023/06/04 14:48:06;;;;;;;;;;;;;;;;;;5020801;28;20316;-68
2023/06/04 14:50:32;;;;;;;;;;;;;;;;;;5016923;28;19936;-68
2023/06/04 14:52:58;;;;;;;;;;;;;;;;;;5017382;28;20636;-68
2023/06/04 14:55:25;;;;;;;;;;;;;;;;;;5013852;28;19912;-72
2023/06/04 14:57:51;;;;;;;;;;;;;;;;;;5022192;28;19964;-69
2023/06/04 15:00:17;;;;;;;;;;;;;;;;;;5011953;28;20452;-68
2023/06/04 15:02:43;;;;;;;;;;;;;;;;;;5012802;28;19913;-68
2023/06/04 15:05:09;;;;;;;;;;;;;;;;;;5018619;28;20254;-69
2023/06/04 15:07:35;;;;;;;;;;;;;;;;;;5013315;28;19913;-67
2023/06/04 15:10:06;;;;;;;;;;;;;;;;;;5020897;28;19912;-69
2023/06/04 15:12:33;;;;;;;;;;;;;;;;;;5012186;28;20452;-68
2023/06/04 15:14:58;;;;;;;;;;;;;;;;;;5013291;28;20329;-68
2023/06/04 15:17:24;;;;;;;;;;;;;;;;;;5010875;28;19921;-68
2023/06/04 15:19:50;;;;;;;;;;;;;;;;;;5016404;28;19924;-68
2023/06/04 15:22:16;;;;;;;;;;;;;;;;;;5012636;28;19992;-68
2023/06/04 15:24:42;;;;;;;;;;;;;;;;;;5013653;28;20433;-68
2023/06/04 15:27:08;;;;;;;;;;;;;;;;;;5012681;28;20338;-69
2023/06/04 15:29:34;;;;;;;;;;;;;;;;;;5019186;28;19913;-69
2023/06/04 15:32:00;;;;;;;;;;;;;;;;;;5013311;28;19920;-70
2023/06/04 15:34:26;;;;;;;;;;;;;;;;;;5012675;28;19917;-68
2023/06/04 15:36:52;;;;;;;;;;;;;;;;;;5014751;28;20426;-71
2023/06/04 15:39:18;;;;;;;;;;;;;;;;;;5011093;28;19945;-68
2023/06/04 15:41:44;;;;;;;;;;;;;;;;;;5012525;28;19979;-68
2023/06/04 15:44:11;;;;;;;;;;;;;;;;;;5009199;28;19924;-70
2023/06/04 15:46:37;;;;;;;;;;;;;;;;;;5013851;28;20232;-69
2023/06/04 15:49:03;;;;;;;;;;;;;;;;;;5011278;28;20353;-68
2023/06/04 15:51:28;;;;;;;;;;;;;;;;;;5010794;28;19919;-69
2023/06/04 15:53:55;;;;;;;;;;;;;;;;;;5014557;28;20022;-69
2023/06/04 15:56:21;;;;;;;;;;;;;;;;;;5004494;28;19917;-69
2023/06/04 15:58:47;;;;;;;;;;;;;;;;;;5012825;28;19963;-69
2023/06/04 16:01:13;;;;;;;;;;;;;;;;;;5010693;28;20317;-69
2023/06/04 16:03:40;;;;;;;;;;;;;;;;;;5019844;28;20376;-71
2023/06/04 16:06:06;;;;;;;;;;;;;;;;;;5015952;28;19917;-71
2023/06/04 16:08:32;;;;;;;;;;;;;;;;;;5013315;28;19917;-71
2023/06/04 16:10:58;;;;;;;;;;;;;;;;;;5010944;28;19943;-71
2023/06/04 16:13:25;;;;;;;;;;;;;;;;;;5009477;28;20279;-71
2023/06/04 16:15:51;;;;;;;;;;;;;;;;;;5013539;28;19928;-70
2023/06/04 16:18:17;;;;;;;;;;;;;;;;;;5009277;28;20342;-70
2023/06/04 16:20:45;;;;;;;;;;;;;;;;;;5011553;28;19932;-70
2023/06/04 16:23:11;;;;;;;;;;;;;;;;;;5009778;28;19913;-68
2023/06/04 16:25:37;;;;;;;;;;;;;;;;;;5008761;28;20187;-71
2023/06/04 16:28:03;;;;;;;;;;;;;;;;;;5010029;28;19913;-70
2023/06/04 16:30:29;;;;;;;;;;;;;;;;;;5011975;28;19924;-70
2023/06/04 16:32:55;;;;;;;;;;;;;;;;;;5013030;28;19913;-72
2023/06/04 16:35:21;;;;;;;;;;;;;;;;;;5011028;28;19912;-70
2023/06/04 16:37:47;;;;;;;;;;;;;;;;;;5011376;28;20002;-70